Time;durP1;ratioP1;P1;durP2;ratioP2;P2;SDS_P1;SDS_P2;PMS_P1;PMS_P2;Temp;Humidity;BMP_temperature;BMP_pressure;BME280_temperature;BME280_humidity;BME280_pressure;Samples;Min_cycle;Max_cycle;Signal;HPM_P1;HPM_P2
2022/08/15 00:02:00;;;;;;;;;;;23.50;85.20;;;;;;5020179;28;19931;-66
2022/08/15 00:04:27;;;;;;;;;;;23.50;85.80;;;;;;5028440;28;19929;-68
2022/08/15 00:06:53;;;;;;;;;;;23.40;86.60;;;;;;5023909;28;19931;-67
2022/08/15 00:09:23;;;;;;;;;;;23.30;87.40;;;;;;5030410;28;19925;-67
2022/08/15 00:11:51;;;;;;;;;;;23.30;88.00;;;;;;5028723;28;19929;-66
2022/08/15 00:14:20;;;;;;;;;;;23.30;88.80;;;;;;5028272;28;19928;-67
2022/08/15 00:16:47;;;;;;;;;;;23.30;89.40;;;;;;5021997;28;19931;-65
2022/08/15 00:19:15;;;;;;;;;;;23.30;90.00;;;;;;5021506;28;19929;-66
2022/08/15 00:21:44;;;;;;;;;;;23.30;90.00;;;;;;5016340;28;19933;-66
2022/08/15 00:24:11;;;;;;;;;;;23.30;90.10;;;;;;5009394;28;20292;-66
2022/08/15 00:26:39;;;;;;;;;;;23.30;90.30;;;;;;5024563;28;19933;-65
2022/08/15 00:29:07;;;;;;;;;;;23.20;90.40;;;;;;5022381;28;19929;-65
2022/08/15 00:31:35;;;;;;;;;;;23.20;90.60;;;;;;5022563;28;20649;-65
2022/08/15 00:34:01;;;;;;;;;;;23.20;90.90;;;;;;5014944;28;19926;-66
2022/08/15 00:36:30;;;;;;;;;;;23.20;91.00;;;;;;5021863;28;19940;-66
2022/08/15 00:38:57;;;;;;;;;;;23.20;91.30;;;;;;5023847;28;19955;-66
2022/08/15 00:41:41;;;;;;;;;;;23.10;91.50;;;;;;5020095;28;19933;-65
2022/08/15 00:44:11;;;;;;;;;;;23.20;91.50;;;;;;5015366;28;20700;-66
2022/08/15 00:46:38;;;;;;;;;;;23.20;91.80;;;;;;5022937;28;20023;-66
2022/08/15 00:49:05;;;;;;;;;;;23.10;91.80;;;;;;5022927;28;19933;-66
2022/08/15 00:51:34;;;;;;;;;;;23.10;91.60;;;;;;5018292;28;19925;-66
2022/08/15 00:54:04;;;;;;;;;;;23.10;91.80;;;;;;5030551;28;19925;-66
2022/08/15 00:56:32;;;;;;;;;;;23.10;91.70;;;;;;5028420;28;19925;-66
2022/08/15 00:58:59;;;;;;;;;;;23.10;91.80;;;;;;5023335;28;20448;-66
2022/08/15 01:01:27;;;;;;;;;;;23.10;92.00;;;;;;5021620;28;19996;-67
2022/08/15 01:03:54;;;;;;;;;;;23.10;92.10;;;;;;5029772;28;19925;-67
2022/08/15 01:06:22;;;;;;;;;;;23.00;92.00;;;;;;5029094;28;20299;-66
2022/08/15 01:08:49;;;;;;;;;;;23.00;92.10;;;;;;5029574;28;20398;-67
2022/08/15 01:11:18;;;;;;;;;;;23.00;92.40;;;;;;5028173;28;19932;-67
2022/08/15 01:13:46;;;;;;;;;;;22.90;92.40;;;;;;5028472;28;19964;-67
2022/08/15 01:16:14;;;;;;;;;;;22.90;92.40;;;;;;5017817;28;19935;-67
2022/08/15 01:18:43;;;;;;;;;;;22.90;92.50;;;;;;5025931;28;20075;-67
2022/08/15 01:21:13;;;;;;;;;;;22.90;92.30;;;;;;5023135;28;20024;-67
2022/08/15 01:23:47;;;;;;;;;;;22.90;92.10;;;;;;5028796;28;20016;-67
2022/08/15 01:26:15;;;;;;;;;;;22.90;92.00;;;;;;5029543;28;19972;-67
2022/08/15 01:28:44;;;;;;;;;;;22.80;91.80;;;;;;5028677;28;19931;-67
2022/08/15 01:31:11;;;;;;;;;;;22.80;91.80;;;;;;5025638;28;20666;-68
2022/08/15 01:33:42;;;;;;;;;;;22.80;91.80;;;;;;5029197;28;20300;-67
2022/08/15 01:36:10;;;;;;;;;;;22.80;91.70;;;;;;5029088;28;19925;-65
2022/08/15 01:38:38;;;;;;;;;;;22.80;91.60;;;;;;5028715;28;19929;-65
2022/08/15 01:41:09;;;;;;;;;;;22.80;91.60;;;;;;5029211;28;19929;-65
2022/08/15 01:43:41;;;;;;;;;;;22.80;91.60;;;;;;5029959;28;19925;-65
2022/08/15 01:46:08;;;;;;;;;;;22.80;91.60;;;;;;5028619;28;19945;-65
2022/08/15 01:48:40;;;;;;;;;;;22.80;91.50;;;;;;5028630;28;20036;-66
2022/08/15 01:51:07;;;;;;;;;;;22.80;91.60;;;;;;5028489;28;19929;-66
2022/08/15 01:53:37;;;;;;;;;;;22.70;91.60;;;;;;5028754;28;20016;-65
2022/08/15 01:56:05;;;;;;;;;;;22.70;91.70;;;;;;5028211;28;20838;-66
2022/08/15 01:58:38;;;;;;;;;;;22.70;91.70;;;;;;5024477;28;19925;-66
2022/08/15 02:01:07;;;;;;;;;;;22.70;91.80;;;;;;5029360;28;19975;-65
2022/08/15 02:03:38;;;;;;;;;;;22.70;91.90;;;;;;5030171;28;19926;-65
2022/08/15 02:06:06;;;;;;;;;;;22.70;92.00;;;;;;5027257;28;20461;-66
2022/08/15 02:08:33;;;;;;;;;;;22.70;92.00;;;;;;5024557;28;19926;-66
2022/08/15 02:10:59;;;;;;;;;;;22.60;92.10;;;;;;5026277;28;20016;-66
2022/08/15 02:13:26;;;;;;;;;;;22.50;92.30;;;;;;5028160;28;19932;-66
2022/08/15 02:15:53;;;;;;;;;;;22.50;92.50;;;;;;5028279;28;19925;-66
2022/08/15 02:18:21;;;;;;;;;;;22.50;92.80;;;;;;5026894;28;20408;-67
2022/08/15 02:20:48;;;;;;;;;;;22.40;93.00;;;;;;5027969;28;19933;-67
2022/08/15 02:23:15;;;;;;;;;;;22.40;93.40;;;;;;5027276;28;20024;-67
2022/08/15 02:25:41;;;;;;;;;;;22.40;93.60;;;;;;5026798;28;20016;-66
2022/08/15 02:28:08;;;;;;;;;;;22.30;93.90;;;;;;5026993;28;19932;-66
2022/08/15 02:30:35;;;;;;;;;;;22.30;94.20;;;;;;5025968;28;20021;-66
2022/08/15 02:33:02;;;;;;;;;;;22.30;94.70;;;;;;5028193;28;20352;-66
2022/08/15 02:35:30;;;;;;;;;;;22.30;95.10;;;;;;5025846;28;19947;-66
2022/08/15 02:37:58;;;;;;;;;;;22.20;98.20;;;;;;5028001;28;19947;-66
2022/08/15 02:40:25;;;;;;;;;;;22.20;99.90;;;;;;5024699;28;19961;-66
2022/08/15 02:42:52;;;;;;;;;;;22.10;99.90;;;;;;5028886;28;20015;-66
2022/08/15 02:45:18;;;;;;;;;;;22.10;99.90;;;;;;5026811;28;20411;-66
2022/08/15 02:47:45;;;;;;;;;;;22.10;99.40;;;;;;5032299;28;20020;-66
2022/08/15 02:50:13;;;;;;;;;;;22.00;99.90;;;;;;5029012;28;19965;-66
2022/08/15 02:52:42;;;;;;;;;;;22.00;99.90;;;;;;5032424;28;19932;-66
2022/08/15 02:55:09;;;;;;;;;;;22.10;99.90;;;;;;5031714;28;20384;-66
2022/08/15 02:57:36;;;;;;;;;;;22.00;99.90;;;;;;5024674;28;20020;-66
2022/08/15 03:00:04;;;;;;;;;;;22.10;99.90;;;;;;5026925;28;19951;-66
2022/08/15 03:02:31;;;;;;;;;;;22.10;99.90;;;;;;5030031;28;22986;-66
2022/08/15 03:04:58;;;;;;;;;;;22.00;99.80;;;;;;5025061;28;20032;-65
2022/08/15 03:07:25;;;;;;;;;;;21.90;99.80;;;;;;5027759;28;20388;-65
2022/08/15 03:09:53;;;;;;;;;;;21.90;99.80;;;;;;5028342;28;19925;-65
2022/08/15 03:12:23;;;;;;;;;;;21.80;99.90;;;;;;5030767;28;20268;-65
2022/08/15 03:14:50;;;;;;;;;;;21.80;99.90;;;;;;5028825;28;19925;-65
2022/08/15 03:17:17;;;;;;;;;;;21.70;99.90;;;;;;5028842;28;19955;-65
2022/08/15 03:19:44;;;;;;;;;;;21.60;99.90;;;;;;5025817;28;20502;-65
2022/08/15 03:22:10;;;;;;;;;;;21.60;99.90;;;;;;5028877;28;20032;-66
2022/08/15 03:24:37;;;;;;;;;;;21.60;99.90;;;;;;5027988;28;20401;-66
2022/08/15 03:27:05;;;;;;;;;;;21.60;99.90;;;;;;5026903;28;20015;-66
2022/08/15 03:29:32;;;;;;;;;;;21.60;99.90;;;;;;5027150;28;19956;-66
2022/08/15 03:31:59;;;;;;;;;;;21.70;99.90;;;;;;5028879;28;19932;-65
2022/08/15 03:34:26;;;;;;;;;;;21.60;99.90;;;;;;5026274;28;20016;-65
2022/08/15 03:36:53;;;;;;;;;;;21.70;99.90;;;;;;5025422;28;19932;-65
2022/08/15 03:39:20;;;;;;;;;;;21.70;99.90;;;;;;5026387;28;19941;-65
2022/08/15 03:41:46;;;;;;;;;;;21.60;99.90;;;;;;5029030;28;20387;-65
2022/08/15 03:44:15;;;;;;;;;;;21.60;99.90;;;;;;5029171;28;19935;-66
2022/08/15 03:46:42;;;;;;;;;;;21.70;99.90;;;;;;5025462;28;19929;-66
2022/08/15 03:49:09;;;;;;;;;;;21.70;99.90;;;;;;5026935;28;20028;-65
2022/08/15 03:51:36;;;;;;;;;;;21.60;99.90;;;;;;5027653;28;20016;-65
2022/08/15 03:54:03;;;;;;;;;;;21.60;99.90;;;;;;5029128;28;20376;-65
2022/08/15 03:56:32;;;;;;;;;;;21.60;99.90;;;;;;5026697;28;20020;-65
2022/08/15 03:58:59;;;;;;;;;;;21.60;99.90;;;;;;5029804;28;19935;-66
2022/08/15 04:01:28;;;;;;;;;;;21.60;99.90;;;;;;5026532;28;20008;-65
2022/08/15 04:03:55;;;;;;;;;;;21.50;99.90;;;;;;5025755;28;20426;-65
2022/08/15 04:06:23;;;;;;;;;;;21.50;99.90;;;;;;5026809;28;19925;-65
2022/08/15 04:08:50;;;;;;;;;;;21.50;99.90;;;;;;5026790;28;20068;-65
2022/08/15 04:11:17;;;;;;;;;;;21.50;99.90;;;;;;5028955;28;20012;-66
2022/08/15 04:13:45;;;;;;;;;;;21.50;99.90;;;;;;5026434;28;19925;-65
2022/08/15 04:16:15;;;;;;;;;;;21.50;99.90;;;;;;5027461;28;19932;-68
2022/08/15 04:18:43;;;;;;;;;;;21.60;99.90;;;;;;5025586;28;19925;-67
2022/08/15 04:21:12;;;;;;;;;;;21.50;99.90;;;;;;5027934;28;19925;-67
2022/08/15 04:23:39;;;;;;;;;;;21.40;99.90;;;;;;5026174;28;20055;-67
2022/08/15 04:26:06;;;;;;;;;;;21.40;99.90;;;;;;5025921;28;20333;-67
2022/08/15 04:28:33;;;;;;;;;;;21.40;99.90;;;;;;5028767;28;20015;-67
2022/08/15 04:31:00;;;;;;;;;;;21.40;99.90;;;;;;5024539;28;19925;-67
2022/08/15 04:33:29;;;;;;;;;;;21.40;99.90;;;;;;5028289;28;19931;-67
2022/08/15 04:35:58;;;;;;;;;;;21.40;99.90;;;;;;5024778;28;20027;-67
2022/08/15 04:38:25;;;;;;;;;;;21.50;99.90;;;;;;5025612;28;20443;-66
2022/08/15 04:40:52;;;;;;;;;;;21.50;99.90;;;;;;5024909;28;20012;-67
2022/08/15 04:43:20;;;;;;;;;;;21.70;99.90;;;;;;5023069;28;19925;-67
2022/08/15 04:45:47;;;;;;;;;;;21.50;99.90;;;;;;5025739;28;19987;-67
2022/08/15 04:48:15;;;;;;;;;;;21.50;99.90;;;;;;5025077;28;20804;-67
2022/08/15 04:50:42;;;;;;;;;;;21.60;99.90;;;;;;5026300;28;19933;-67
2022/08/15 04:53:11;;;;;;;;;;;21.50;99.90;;;;;;5025706;28;19987;-67
2022/08/15 04:55:41;;;;;;;;;;;21.50;99.90;;;;;;5024845;28;19925;-67
2022/08/15 04:58:08;;;;;;;;;;;21.50;99.90;;;;;;5024206;28;20414;-67
2022/08/15 05:00:37;;;;;;;;;;;21.50;99.90;;;;;;5024860;28;20318;-67
2022/08/15 05:03:04;;;;;;;;;;;21.40;99.90;;;;;;5027357;28;19925;-67
2022/08/15 05:05:32;;;;;;;;;;;21.40;99.90;;;;;;5024326;28;20388;-67
2022/08/15 05:07:59;;;;;;;;;;;21.40;99.90;;;;;;5025118;28;19929;-67
2022/08/15 05:10:27;;;;;;;;;;;21.40;99.90;;;;;;5022277;28;20040;-67
2022/08/15 05:12:53;;;;;;;;;;;21.40;99.90;;;;;;5026153;28;20012;-66
2022/08/15 05:15:21;;;;;;;;;;;21.40;99.90;;;;;;5021146;28;19925;-66
2022/08/15 05:17:49;;;;;;;;;;;21.50;99.90;;;;;;5024968;28;19932;-67
2022/08/15 05:20:17;;;;;;;;;;;21.50;99.90;;;;;;5023036;28;20437;-65
2022/08/15 05:22:54;;;;;;;;;;;21.50;99.90;;;;;;5023942;28;19964;-67
2022/08/15 05:25:21;;;;;;;;;;;21.50;99.90;;;;;;5020793;28;20018;-67
2022/08/15 05:27:49;;;;;;;;;;;21.50;99.90;;;;;;5026632;28;19932;-67
2022/08/15 05:30:16;;;;;;;;;;;21.40;99.90;;;;;;5019118;28;19939;-68
2022/08/15 05:32:43;;;;;;;;;;;21.40;99.90;;;;;;5025528;28;19968;-66
2022/08/15 05:35:10;;;;;;;;;;;21.40;99.90;;;;;;5019199;28;19925;-67
2022/08/15 05:37:37;;;;;;;;;;;21.40;99.90;;;;;;5026655;28;19931;-67
2022/08/15 05:40:05;;;;;;;;;;;21.40;99.90;;;;;;5020749;28;19925;-68
2022/08/15 05:42:38;;;;;;;;;;;21.50;99.90;;;;;;5025575;28;19968;-67
2022/08/15 05:45:16;;;;;;;;;;;21.40;99.90;;;;;;5024120;28;20018;-67
2022/08/15 05:47:44;;;;;;;;;;;21.40;99.90;;;;;;5027215;28;19971;-67
2022/08/15 05:50:13;;;;;;;;;;;21.30;99.90;;;;;;5025386;28;19940;-67
2022/08/15 05:52:45;;;;;;;;;;;21.20;99.90;;;;;;5025690;28;20015;-67
2022/08/15 05:55:18;;;;;;;;;;;21.30;99.90;;;;;;5019882;28;20281;-67
2022/08/15 05:57:50;;;;;;;;;;;21.20;99.90;;;;;;5028683;28;20032;-67
2022/08/15 06:00:19;;;;;;;;;;;21.30;99.90;;;;;;5022942;28;20004;-66
2022/08/15 06:02:47;;;;;;;;;;;21.40;99.90;;;;;;5021529;28;20011;-66
2022/08/15 06:05:15;;;;;;;;;;;21.60;99.90;;;;;;5027764;28;20367;-66
2022/08/15 06:07:45;;;;;;;;;;;21.50;99.90;;;;;;5024978;28;20528;-67
2022/08/15 06:10:14;;;;;;;;;;;21.50;99.90;;;;;;5026840;28;19979;-66
2022/08/15 06:12:46;;;;;;;;;;;21.40;99.90;;;;;;5026037;28;20277;-67
2022/08/15 06:15:28;;;;;;;;;;;21.40;99.90;;;;;;5020168;28;19925;-66
2022/08/15 06:17:57;;;;;;;;;;;21.30;99.90;;;;;;5020162;28;20537;-65
2022/08/15 06:20:31;;;;;;;;;;;21.30;99.90;;;;;;5021947;28;19978;-66
2022/08/15 06:23:05;;;;;;;;;;;21.40;99.90;;;;;;5023883;28;20441;-66
2022/08/15 06:25:34;;;;;;;;;;;21.40;99.90;;;;;;5026748;28;19963;-66
2022/08/15 06:28:09;;;;;;;;;;;21.40;99.90;;;;;;5021052;28;20395;-65
2022/08/15 06:30:42;;;;;;;;;;;21.30;99.90;;;;;;5020932;28;20427;-66
2022/08/15 06:33:15;;;;;;;;;;;21.30;99.90;;;;;;5027691;28;19925;-66
2022/08/15 06:35:45;;;;;;;;;;;21.40;99.90;;;;;;5023669;28;19930;-65
2022/08/15 06:38:19;;;;;;;;;;;21.40;99.90;;;;;;5030480;28;19932;-66
2022/08/15 06:40:49;;;;;;;;;;;21.50;99.90;;;;;;5026018;28;19932;-65
2022/08/15 06:43:16;;;;;;;;;;;21.60;99.90;;;;;;5023118;28;19932;-66
2022/08/15 06:45:45;;;;;;;;;;;21.60;99.90;;;;;;5028607;28;19929;-67
2022/08/15 06:48:14;;;;;;;;;;;21.60;99.90;;;;;;5027641;28;19960;-66
2022/08/15 06:50:42;;;;;;;;;;;21.50;99.90;;;;;;5021506;28;20025;-67
2022/08/15 06:53:10;;;;;;;;;;;21.50;99.90;;;;;;5023819;28;19940;-67
2022/08/15 06:55:44;;;;;;;;;;;21.60;99.90;;;;;;5023189;28;19976;-67
2022/08/15 06:58:12;;;;;;;;;;;21.50;99.90;;;;;;5023199;28;19975;-66
2022/08/15 07:00:41;;;;;;;;;;;21.50;99.90;;;;;;5020707;28;19933;-67
2022/08/15 07:03:14;;;;;;;;;;;21.50;99.90;;;;;;5020148;28;19947;-67
2022/08/15 07:05:46;;;;;;;;;;;21.50;99.90;;;;;;5021219;28;19965;-67
2022/08/15 07:08:14;;;;;;;;;;;21.60;99.90;;;;;;5026903;28;19948;-68
2022/08/15 07:10:43;;;;;;;;;;;21.70;99.90;;;;;;5026167;28;19925;-65
2022/08/15 07:13:12;;;;;;;;;;;21.70;99.90;;;;;;5018183;28;19932;-66
2022/08/15 07:15:50;;;;;;;;;;;21.90;99.90;;;;;;5021723;28;19948;-65
2022/08/15 07:18:19;;;;;;;;;;;21.90;99.90;;;;;;5020073;28;20032;-67
2022/08/15 07:20:48;;;;;;;;;;;22.10;99.90;;;;;;5021870;28;20056;-66
2022/08/15 07:23:20;;;;;;;;;;;22.10;99.90;;;;;;5022884;28;19960;-67
2022/08/15 07:25:48;;;;;;;;;;;22.10;99.90;;;;;;5022004;28;20234;-67
2022/08/15 07:28:16;;;;;;;;;;;22.20;99.90;;;;;;5021546;28;19933;-67
2022/08/15 07:30:45;;;;;;;;;;;22.20;99.90;;;;;;5014737;28;19940;-67
2022/08/15 07:33:27;;;;;;;;;;;22.30;99.90;;;;;;5013650;28;20473;-68
2022/08/15 07:36:02;;;;;;;;;;;22.40;99.90;;;;;;5015214;28;20026;-66
2022/08/15 07:38:30;;;;;;;;;;;22.60;99.90;;;;;;5016600;28;19933;-66
2022/08/15 07:41:14;;;;;;;;;;;22.70;99.90;;;;;;5016859;28;20024;-66
2022/08/15 07:43:42;;;;;;;;;;;22.80;99.90;;;;;;5022489;28;20044;-66
2022/08/15 07:46:10;;;;;;;;;;;23.00;99.90;;;;;;5026069;28;20287;-65
2022/08/15 07:48:38;;;;;;;;;;;23.00;99.90;;;;;;5029141;28;19925;-66
2022/08/15 07:51:15;;;;;;;;;;;22.60;99.90;;;;;;5029539;28;19929;-66
2022/08/15 07:53:50;;;;;;;;;;;22.80;99.90;;;;;;5023829;28;21631;-67
2022/08/15 07:56:17;;;;;;;;;;;22.60;99.90;;;;;;5025181;28;19971;-66
2022/08/15 07:58:44;;;;;;;;;;;22.70;99.90;;;;;;5028331;28;20024;-67
2022/08/15 08:01:11;;;;;;;;;;;22.90;99.90;;;;;;5020431;28;19925;-67
2022/08/15 08:03:39;;;;;;;;;;;23.00;99.90;;;;;;5021629;28;19969;-67
2022/08/15 08:06:09;;;;;;;;;;;23.10;99.90;;;;;;5025890;28;20358;-67
2022/08/15 08:08:39;;;;;;;;;;;23.20;99.90;;;;;;5026245;28;19936;-68
2022/08/15 08:11:08;;;;;;;;;;;23.20;99.90;;;;;;5028251;28;20315;-67
2022/08/15 08:13:39;;;;;;;;;;;23.20;99.90;;;;;;5024498;28;19995;-66
2022/08/15 08:16:09;;;;;;;;;;;23.20;99.90;;;;;;5025075;28;19925;-67
2022/08/15 08:18:47;;;;;;;;;;;23.30;99.90;;;;;;5026416;28;20335;-66
2022/08/15 08:21:16;;;;;;;;;;;23.20;99.90;;;;;;5024561;28;20742;-67
2022/08/15 08:23:45;;;;;;;;;;;23.30;99.90;;;;;;5029759;28;19979;-67
2022/08/15 08:26:19;;;;;;;;;;;23.30;99.90;;;;;;5021161;28;19933;-67
2022/08/15 08:28:48;;;;;;;;;;;23.40;99.90;;;;;;5016693;28;20399;-67
2022/08/15 08:31:21;;;;;;;;;;;23.60;99.90;;;;;;5023653;28;20593;-67
2022/08/15 08:33:54;;;;;;;;;;;23.80;99.90;;;;;;5018843;28;19931;-67
2022/08/15 08:36:28;;;;;;;;;;;23.80;99.90;;;;;;5025934;28;20013;-67
2022/08/15 08:38:59;;;;;;;;;;;23.90;99.90;;;;;;5020666;28;20311;-68
2022/08/15 08:41:34;;;;;;;;;;;24.00;99.90;;;;;;5020185;28;20011;-68
2022/08/15 08:44:11;;;;;;;;;;;23.80;99.90;;;;;;5013368;28;20162;-67
2022/08/15 08:46:48;;;;;;;;;;;23.90;99.90;;;;;;5023500;28;20012;-67
2022/08/15 08:49:17;;;;;;;;;;;23.90;99.90;;;;;;5019731;28;20355;-67
2022/08/15 08:51:48;;;;;;;;;;;23.90;99.90;;;;;;5017025;28;19925;-67
2022/08/15 08:54:19;;;;;;;;;;;23.80;99.90;;;;;;5013607;28;19972;-67
2022/08/15 08:56:49;;;;;;;;;;;24.00;99.90;;;;;;5012010;28;19940;-67
2022/08/15 08:59:18;;;;;;;;;;;23.90;99.90;;;;;;5025228;28;19972;-67
2022/08/15 09:01:46;;;;;;;;;;;24.00;99.90;;;;;;5019165;28;19932;-67
2022/08/15 09:04:15;;;;;;;;;;;24.40;99.90;;;;;;5019994;28;19952;-67
2022/08/15 09:06:42;;;;;;;;;;;24.60;99.90;;;;;;5023718;28;19936;-67
2022/08/15 09:09:12;;;;;;;;;;;24.60;99.90;;;;;;5027776;28;20012;-67
2022/08/15 09:11:41;;;;;;;;;;;24.70;99.90;;;;;;5019207;28;19925;-67
2022/08/15 09:14:12;;;;;;;;;;;25.10;99.90;;;;;;5023007;28;20003;-67
2022/08/15 09:16:40;;;;;;;;;;;26.70;99.90;;;;;;5024075;28;20256;-67
2022/08/15 09:19:24;;;;;;;;;;;28.80;97.70;;;;;;5023225;28;19933;-67
2022/08/15 09:21:51;;;;;;;;;;;30.50;91.10;;;;;;5017541;28;19939;-67
2022/08/15 09:24:21;;;;;;;;;;;30.90;82.40;;;;;;5017633;28;19925;-67
2022/08/15 09:26:51;;;;;;;;;;;31.80;75.00;;;;;;5019371;28;20028;-67
2022/08/15 09:29:22;;;;;;;;;;;32.20;67.90;;;;;;5021437;28;20008;-68
2022/08/15 09:31:55;;;;;;;;;;;31.90;70.00;;;;;;5019295;28;20595;-68
2022/08/15 09:34:30;;;;;;;;;;;31.80;60.30;;;;;;5019130;28;19933;-67
2022/08/15 09:37:14;;;;;;;;;;;31.50;57.90;;;;;;5020237;28;20442;-67
2022/08/15 09:39:53;;;;;;;;;;;30.70;51.00;;;;;;5022139;28;19955;-68
2022/08/15 09:42:27;;;;;;;;;;;30.30;52.70;;;;;;5018227;28;19925;-66
2022/08/15 09:45:00;;;;;;;;;;;29.40;55.40;;;;;;5020143;28;19929;-67
2022/08/15 09:47:39;;;;;;;;;;;29.10;57.70;;;;;;5020855;28;20358;-67
2022/08/15 09:50:20;;;;;;;;;;;28.80;58.60;;;;;;5025440;28;19925;-67
2022/08/15 09:52:53;;;;;;;;;;;28.90;56.80;;;;;;5020941;28;20300;-67
2022/08/15 09:55:24;;;;;;;;;;;28.70;57.30;;;;;;5017440;28;20400;-67
2022/08/15 09:57:52;;;;;;;;;;;28.80;57.80;;;;;;5017900;28;20414;-68
2022/08/15 10:00:21;;;;;;;;;;;29.40;55.60;;;;;;5015063;28;19925;-67
2022/08/15 10:02:49;;;;;;;;;;;29.30;54.10;;;;;;5016854;28;19929;-67
2022/08/15 10:05:23;;;;;;;;;;;28.70;55.00;;;;;;5012958;28;20760;-67
2022/08/15 10:07:52;;;;;;;;;;;28.20;55.50;;;;;;5010117;28;19933;-66
2022/08/15 10:10:22;;;;;;;;;;;27.80;58.00;;;;;;5017417;28;20635;-66
2022/08/15 10:13:07;;;;;;;;;;;27.70;59.30;;;;;;5022310;28;19976;-66
2022/08/15 10:15:43;;;;;;;;;;;27.80;60.70;;;;;;5026344;28;20447;-67
2022/08/15 10:18:10;;;;;;;;;;;27.90;60.60;;;;;;5020191;28;19932;-66
2022/08/15 10:20:48;;;;;;;;;;;28.10;60.50;;;;;;5024871;28;19984;-66
2022/08/15 10:23:16;;;;;;;;;;;28.20;60.40;;;;;;5026708;28;19933;-65
2022/08/15 10:25:45;;;;;;;;;;;28.20;59.50;;;;;;5027390;28;19929;-66
2022/08/15 10:28:21;;;;;;;;;;;28.20;60.20;;;;;;5026611;28;19925;-65
2022/08/15 10:31:12;;;;;;;;;;;28.00;60.70;;;;;;5017874;28;20008;-66
2022/08/15 10:33:44;;;;;;;;;;;27.80;62.10;;;;;;5023584;28;20028;-64
2022/08/15 10:36:18;;;;;;;;;;;28.20;60.00;;;;;;5025016;28;19940;-65
2022/08/15 10:38:46;;;;;;;;;;;28.60;58.80;;;;;;5025954;28;20100;-65
2022/08/15 10:41:17;;;;;;;;;;;29.10;56.90;;;;;;5022845;28;19929;-65
2022/08/15 10:43:49;;;;;;;;;;;29.00;54.70;;;;;;5013554;28;20429;-65
2022/08/15 10:46:19;;;;;;;;;;;28.50;57.00;;;;;;5020477;28;20016;-65
2022/08/15 10:48:52;;;;;;;;;;;28.50;57.20;;;;;;5020951;28;19931;-65
2022/08/15 10:51:27;;;;;;;;;;;28.30;57.90;;;;;;5024043;28;19929;-65
2022/08/15 10:54:00;;;;;;;;;;;28.00;60.50;;;;;;5023141;28;19975;-65
2022/08/15 10:56:32;;;;;;;;;;;27.80;60.10;;;;;;5014511;28;20012;-65
2022/08/15 10:59:00;;;;;;;;;;;27.90;62.10;;;;;;5027056;28;19925;-66
2022/08/15 11:01:31;;;;;;;;;;;28.10;60.50;;;;;;5018783;28;19925;-65
2022/08/15 11:04:01;;;;;;;;;;;27.80;60.40;;;;;;5024194;28;19929;-66
2022/08/15 11:06:28;;;;;;;;;;;27.80;60.30;;;;;;5021293;28;20520;-65
2022/08/15 11:08:56;;;;;;;;;;;27.70;61.00;;;;;;5024178;28;19933;-66
2022/08/15 11:11:25;;;;;;;;;;;28.10;59.90;;;;;;5025784;28;19933;-66
2022/08/15 11:13:54;;;;;;;;;;;28.10;61.00;;;;;;5025417;28;20391;-66
2022/08/15 11:16:28;;;;;;;;;;;28.10;60.10;;;;;;5028002;28;20357;-66
2022/08/15 11:18:58;;;;;;;;;;;28.10;58.40;;;;;;5028100;28;19933;-66
2022/08/15 11:21:36;;;;;;;;;;;28.10;58.30;;;;;;5027866;28;19975;-65
2022/08/15 11:24:06;;;;;;;;;;;27.90;59.30;;;;;;5024429;28;19929;-65
2022/08/15 11:26:35;;;;;;;;;;;27.70;60.00;;;;;;5029813;28;20399;-66
2022/08/15 11:29:15;;;;;;;;;;;27.80;60.30;;;;;;5023998;28;19936;-66
2022/08/15 11:31:43;;;;;;;;;;;28.20;58.90;;;;;;5024542;28;20032;-66
2022/08/15 11:34:18;;;;;;;;;;;28.20;58.10;;;;;;5027405;28;20016;-66
2022/08/15 11:36:45;;;;;;;;;;;28.20;58.40;;;;;;5028656;28;19958;-66
2022/08/15 11:39:13;;;;;;;;;;;28.00;59.00;;;;;;5026546;28;20021;-66
2022/08/15 11:41:41;;;;;;;;;;;28.10;58.80;;;;;;5022635;28;19932;-66
2022/08/15 11:44:10;;;;;;;;;;;28.50;58.60;;;;;;5022249;28;20476;-66
2022/08/15 11:46:38;;;;;;;;;;;28.70;55.50;;;;;;5019455;28;19925;-65
2022/08/15 11:49:07;;;;;;;;;;;28.60;55.50;;;;;;5020426;28;20368;-66
2022/08/15 11:51:36;;;;;;;;;;;28.50;54.60;;;;;;5018745;28;19933;-66
2022/08/15 11:54:05;;;;;;;;;;;28.60;54.30;;;;;;5022572;28;20011;-67
2022/08/15 11:56:43;;;;;;;;;;;28.70;54.70;;;;;;5023146;28;19947;-66
2022/08/15 11:59:12;;;;;;;;;;;29.10;52.40;;;;;;5023376;28;19956;-66
2022/08/15 12:01:41;;;;;;;;;;;29.20;52.60;;;;;;5023310;28;19929;-67
2022/08/15 12:04:12;;;;;;;;;;;29.20;52.70;;;;;;5025705;28;19925;-66
2022/08/15 12:06:40;;;;;;;;;;;29.30;49.60;;;;;;5027519;28;20356;-65
2022/08/15 12:09:08;;;;;;;;;;;29.30;50.60;;;;;;5026353;28;20018;-66
2022/08/15 12:11:41;;;;;;;;;;;29.20;49.90;;;;;;5025723;28;20079;-65
2022/08/15 12:14:14;;;;;;;;;;;29.20;49.10;;;;;;5026782;28;20295;-66
2022/08/15 12:16:45;;;;;;;;;;;29.10;49.30;;;;;;5023129;28;19932;-66
2022/08/15 12:19:29;;;;;;;;;;;29.10;50.30;;;;;;5020571;28;20305;-66
2022/08/15 12:22:18;;;;;;;;;;;28.90;50.10;;;;;;5029751;28;19925;-67
2022/08/15 12:24:48;;;;;;;;;;;28.40;52.30;;;;;;5028697;28;20028;-67
2022/08/15 12:27:15;;;;;;;;;;;28.20;52.80;;;;;;5016932;28;19929;-68
2022/08/15 12:29:42;;;;;;;;;;;28.10;53.50;;;;;;5023054;22;19932;-68
2022/08/15 12:32:12;;;;;;;;;;;28.30;53.70;;;;;;5030847;28;19932;-68
2022/08/15 12:34:39;;;;;;;;;;;28.40;53.50;;;;;;5034448;28;20280;-66
2022/08/15 12:37:07;;;;;;;;;;;28.60;53.00;;;;;;5037697;28;19925;-66
2022/08/15 12:39:35;;;;;;;;;;;28.80;52.70;;;;;;5041530;28;19925;-66
2022/08/15 12:42:01;;;;;;;;;;;28.80;52.20;;;;;;5030220;28;19940;-66
2022/08/15 12:44:29;;;;;;;;;;;28.80;52.10;;;;;;5027281;28;20031;-66
2022/08/15 12:46:56;;;;;;;;;;;28.90;52.00;;;;;;5040229;28;20032;-67
2022/08/15 12:49:25;;;;;;;;;;;29.10;51.30;;;;;;5038422;28;20023;-66
2022/08/15 12:51:51;;;;;;;;;;;29.30;49.90;;;;;;5038003;28;19939;-65
2022/08/15 12:54:19;;;;;;;;;;;29.20;49.80;;;;;;5036265;28;19933;-67
2022/08/15 12:56:45;;;;;;;;;;;29.20;49.30;;;;;;5031491;28;19929;-65
2022/08/15 12:59:13;;;;;;;;;;;29.10;49.80;;;;;;5031381;28;20295;-65
2022/08/15 13:01:41;;;;;;;;;;;29.40;49.00;;;;;;5030439;28;19933;-66
2022/08/15 13:04:10;;;;;;;;;;;30.10;47.30;;;;;;5032480;28;20358;-66
2022/08/15 13:06:42;;;;;;;;;;;30.10;45.40;;;;;;5044049;28;20276;-66
2022/08/15 13:09:10;;;;;;;;;;;30.00;45.00;;;;;;5037654;28;20287;-66
2022/08/15 13:11:37;;;;;;;;;;;30.20;44.60;;;;;;5035265;28;19929;-66
2022/08/15 13:14:04;;;;;;;;;;;30.20;44.50;;;;;;5032225;28;20023;-65
2022/08/15 13:16:31;;;;;;;;;;;30.00;45.10;;;;;;5030301;28;19936;-66
2022/08/15 13:18:58;;;;;;;;;;;29.80;44.30;;;;;;5035500;28;20395;-66
2022/08/15 13:24:10;;;;;;;;;;;30.10;44.20;;;;;;5036824;28;20055;-65
2022/08/15 13:26:39;;;;;;;;;;;30.30;42.60;;;;;;5035198;28;19925;-66
2022/08/15 13:29:06;;;;;;;;;;;30.10;42.90;;;;;;5032689;28;19931;-67
2022/08/15 13:31:34;;;;;;;;;;;29.90;43.30;;;;;;5026339;28;19933;-67
2022/08/15 13:34:00;;;;;;;;;;;29.80;42.80;;;;;;5031268;28;19951;-68
2022/08/15 13:36:28;;;;;;;;;;;29.60;42.90;;;;;;5033273;28;20024;-67
2022/08/15 13:38:56;;;;;;;;;;;29.70;42.30;;;;;;5035437;28;19924;-67
2022/08/15 13:41:25;;;;;;;;;;;30.10;42.40;;;;;;5045728;28;20446;-67
2022/08/15 13:43:52;;;;;;;;;;;30.30;40.50;;;;;;5041393;28;19935;-67
2022/08/15 13:46:20;;;;;;;;;;;30.20;38.50;;;;;;5040613;28;19931;-67
2022/08/15 13:48:48;;;;;;;;;;;30.20;37.30;;;;;;5038825;28;19925;-68
2022/08/15 13:51:19;;;;;;;;;;;29.90;38.40;;;;;;5049051;28;19931;-67
2022/08/15 13:53:46;;;;;;;;;;;30.30;36.60;;;;;;5047542;28;19925;-67
2022/08/15 13:56:13;;;;;;;;;;;30.70;34.90;;;;;;5043016;28;19933;-68
2022/08/15 13:58:41;;;;;;;;;;;31.00;33.30;;;;;;5047710;28;19929;-68
2022/08/15 14:01:09;;;;;;;;;;;31.00;32.40;;;;;;5046838;28;19925;-68
2022/08/15 14:03:36;;;;;;;;;;;31.10;33.00;;;;;;5032534;28;19925;-68
2022/08/15 14:06:03;;;;;;;;;;;30.90;33.20;;;;;;5047979;28;19929;-68
2022/08/15 14:08:30;;;;;;;;;;;31.00;33.00;;;;;;5047426;28;19996;-67
2022/08/15 14:10:57;;;;;;;;;;;31.10;31.50;;;;;;5050205;28;19972;-67
2022/08/15 14:13:23;;;;;;;;;;;31.00;31.60;;;;;;5048612;28;20108;-67
2022/08/15 14:15:54;;;;;;;;;;;30.50;30.70;;;;;;5049020;28;20019;-67
2022/08/15 14:18:20;;;;;;;;;;;30.30;30.60;;;;;;5047695;28;19925;-67
2022/08/15 14:20:47;;;;;;;;;;;30.40;33.10;;;;;;5046759;28;20008;-66
2022/08/15 14:23:14;;;;;;;;;;;30.30;32.00;;;;;;5040002;28;19935;-67
2022/08/15 14:25:42;;;;;;;;;;;30.30;32.40;;;;;;5049778;28;20011;-67
2022/08/15 14:28:08;;;;;;;;;;;30.30;31.90;;;;;;5035212;28;19925;-67
2022/08/15 14:30:36;;;;;;;;;;;29.70;31.80;;;;;;5049452;28;20007;-67
2022/08/15 14:33:05;;;;;;;;;;;29.70;32.90;;;;;;5048285;28;20059;-67